createdAt,value
2022-12-01T00:02:51.687Z,20.23
2022-12-01T00:03:39.035Z,21.65
2022-12-01T00:04:25.844Z,23.30
2022-12-01T00:05:12.589Z,21.02
2022-12-01T00:06:01.312Z,22.45
2022-12-01T00:06:48.433Z,22.70
2022-12-01T00:07:35.327Z,21.70
2022-12-01T00:08:22.353Z,20.98
2022-12-01T00:09:28.282Z,22.35
2022-12-01T00:10:27.367Z,21.87
2022-12-01T00:11:14.240Z,22.62
2022-12-01T00:12:01.272Z,22.52
2022-12-01T00:13:49.493Z,21.85
2022-12-01T00:15:53.433Z,21.17
2022-12-01T00:16:41.359Z,22.50
2022-12-01T00:17:30.391Z,22.83
2022-12-01T00:18:17.516Z,21.52
2022-12-01T00:19:04.542Z,22.73
2022-12-01T00:19:51.423Z,22.37
2022-12-01T00:23:57.992Z,22.58
2022-12-01T00:24:45.432Z,22.13
2022-12-01T00:25:32.620Z,22.50
2022-12-01T00:26:20.402Z,22.80
2022-12-01T00:27:07.230Z,23.27
2022-12-01T00:27:54.776Z,22.50
2022-12-01T00:28:41.957Z,22.60
2022-12-01T00:29:28.920Z,23.48
2022-12-01T00:30:16.184Z,22.25
2022-12-01T00:31:07.831Z,21.75
2022-12-01T00:31:54.755Z,22.08
2022-12-01T00:32:41.757Z,22.83
2022-12-01T00:33:28.734Z,23.65
2022-12-01T00:34:23.175Z,20.45
2022-12-01T00:35:10.219Z,21.55
2022-12-01T00:36:00.664Z,22.27
2022-12-01T00:36:47.438Z,22.70
2022-12-01T00:37:35.467Z,21.30
2022-12-01T00:38:22.303Z,23.83
2022-12-01T00:39:10.035Z,21.05
2022-12-01T00:39:57.537Z,21.10
2022-12-01T00:40:44.405Z,21.48
2022-12-01T00:41:31.237Z,21.98
2022-12-01T00:42:20.969Z,21.00
2022-12-01T00:43:07.965Z,22.07
2022-12-01T00:43:54.984Z,21.37
2022-12-01T00:44:41.854Z,21.15
2022-12-01T00:45:28.678Z,22.13
2022-12-01T00:46:15.721Z,20.30
2022-12-01T00:47:02.630Z,21.85
2022-12-01T00:47:49.477Z,20.83
2022-12-01T00:48:37.290Z,22.25
2022-12-01T00:49:24.235Z,22.15
2022-12-01T00:50:11.484Z,23.70
2022-12-01T00:50:58.357Z,21.25
2022-12-01T00:51:45.373Z,21.67
2022-12-01T00:52:32.236Z,21.37
2022-12-01T00:53:19.514Z,22.25
2022-12-01T00:54:06.363Z,21.42
2022-12-01T00:54:53.120Z,20.65
2022-12-01T00:55:40.538Z,21.62
2022-12-01T00:56:27.387Z,21.37
2022-12-01T00:57:14.242Z,21.77
2022-12-01T00:58:01.052Z,22.05
2022-12-01T00:58:47.906Z,22.87
2022-12-01T00:59:35.978Z,21.08
2022-12-01T01:00:22.826Z,21.90
2022-12-01T01:01:09.737Z,21.73
2022-12-01T01:01:56.768Z,22.13
2022-12-01T01:02:44.103Z,21.23
2022-12-01T01:03:32.384Z,21.00
2022-12-01T01:04:19.643Z,22.30
2022-12-01T01:05:07.499Z,22.35
2022-12-01T01:05:54.544Z,20.08
2022-12-01T01:06:43.503Z,20.37
2022-12-01T01:07:30.929Z,20.45
2022-12-01T01:08:17.821Z,20.70
2022-12-01T01:09:04.729Z,20.27
2022-12-01T01:09:51.569Z,21.27
2022-12-01T01:10:39.682Z,21.60
2022-12-01T01:11:26.554Z,20.65
2022-12-01T01:12:13.363Z,19.42
2022-12-01T01:13:00.287Z,19.98
2022-12-01T01:13:47.313Z,21.52
2022-12-01T01:14:34.209Z,21.45
2022-12-01T01:15:21.881Z,21.55
2022-12-01T01:16:22.077Z,23.35
2022-12-01T01:17:09.147Z,17.77
2022-12-01T01:17:55.963Z,19.35
2022-12-01T01:18:43.043Z,21.15
2022-12-01T01:19:29.949Z,21.62
2022-12-01T01:20:16.870Z,21.50
2022-12-01T01:21:08.876Z,21.55
2022-12-01T01:21:55.732Z,19.45
2022-12-01T01:22:42.591Z,20.73
2022-12-01T01:23:29.618Z,20.67
2022-12-01T01:24:16.471Z,19.62
2022-12-01T01:25:03.385Z,19.80
2022-12-01T01:25:50.212Z,20.52
2022-12-01T01:26:38.004Z,20.70
2022-12-01T01:27:24.865Z,19.85
2022-12-01T01:28:11.674Z,19.90
2022-12-01T01:29:00.385Z,21.52
2022-12-01T01:29:47.577Z,22.10
2022-12-01T01:30:34.841Z,20.17
2022-12-01T01:31:23.424Z,21.00
2022-12-01T01:32:10.256Z,20.52
2022-12-01T01:32:57.112Z,21.08
2022-12-01T01:33:44.565Z,19.92
2022-12-01T01:34:31.438Z,21.17
2022-12-01T01:35:18.279Z,22.35
2022-12-01T01:36:05.808Z,21.52
2022-12-01T01:36:52.601Z,22.25
2022-12-01T01:37:39.491Z,21.23
2022-12-01T01:38:27.094Z,22.85
2022-12-01T01:39:13.954Z,20.62
2022-12-01T01:40:00.778Z,21.15
2022-12-01T01:40:47.627Z,21.02
2022-12-01T01:41:34.546Z,21.92
2022-12-01T01:42:22.256Z,23.23
2022-12-01T01:43:38.208Z,20.92
2022-12-01T01:44:50.963Z,19.92
2022-12-01T01:45:37.980Z,22.00
2022-12-01T01:46:30.240Z,21.70
2022-12-01T01:47:22.572Z,20.77
2022-12-01T01:48:10.992Z,20.50
2022-12-01T01:49:00.848Z,20.52
2022-12-01T01:49:48.152Z,17.90
2022-12-01T01:50:35.397Z,20.83
2022-12-01T01:51:30.311Z,20.35
2022-12-01T01:52:17.876Z,21.67
2022-12-01T01:53:09.550Z,20.77
2022-12-01T01:53:59.521Z,22.48
2022-12-01T01:54:48.672Z,20.73
2022-12-01T01:55:36.052Z,20.70
2022-12-01T01:56:23.438Z,21.30
2022-12-01T01:57:12.370Z,20.75
2022-12-01T01:58:00.010Z,21.02
2022-12-01T01:58:47.561Z,19.67
2022-12-01T01:59:47.531Z,20.75
2022-12-01T02:00:34.520Z,19.42
2022-12-01T02:01:22.131Z,21.42
2022-12-01T02:02:11.230Z,21.20
2022-12-01T02:02:58.451Z,20.00
2022-12-01T02:03:45.835Z,22.52
2022-12-01T02:04:37.513Z,21.00
2022-12-01T02:05:27.313Z,22.05
2022-12-01T02:06:14.431Z,20.52
2022-12-01T02:07:01.362Z,20.37
2022-12-01T02:07:48.800Z,21.10
2022-12-01T02:08:36.588Z,21.00
2022-12-01T02:09:23.438Z,22.10
2022-12-01T02:10:12.366Z,21.70
2022-12-01T02:11:06.747Z,21.87
2022-12-01T02:12:15.393Z,21.42
2022-12-01T02:13:13.149Z,19.70
2022-12-01T02:14:44.440Z,19.95
2022-12-01T02:15:39.566Z,19.52
2022-12-01T02:16:49.147Z,21.80
2022-12-01T02:18:02.138Z,22.05
2022-12-01T02:19:25.914Z,20.52
2022-12-01T02:20:59.763Z,21.30
2022-12-01T02:22:37.183Z,20.35
2022-12-01T02:23:38.946Z,20.83
2022-12-01T02:24:48.714Z,19.45
2022-12-01T02:26:03.677Z,20.67
2022-12-01T02:27:02.060Z,20.17
2022-12-01T02:28:14.582Z,19.95
2022-12-01T02:29:39.150Z,19.48
2022-12-01T02:30:41.578Z,19.40
2022-12-01T02:31:40.460Z,17.80
2022-12-01T02:32:40.540Z,20.08
2022-12-01T02:33:35.458Z,19.58
2022-12-01T02:34:27.874Z,19.35
2022-12-01T02:35:33.133Z,19.33
2022-12-01T02:36:36.206Z,18.05
2022-12-01T02:37:52.529Z,20.15
2022-12-01T02:38:52.244Z,19.15
2022-12-01T02:39:45.552Z,19.45
2022-12-01T02:40:44.177Z,20.62
2022-12-01T02:41:41.597Z,20.92
2022-12-01T02:42:53.882Z,20.42
2022-12-01T02:44:07.879Z,20.23
2022-12-01T02:44:55.160Z,19.92
2022-12-01T02:46:11.601Z,19.90
2022-12-01T02:47:10.670Z,20.15
2022-12-01T02:48:01.849Z,20.75
2022-12-01T02:48:50.682Z,20.90
2022-12-01T02:49:42.409Z,23.35
2022-12-01T02:50:31.878Z,21.52
2022-12-01T02:51:31.387Z,21.15
2022-12-01T02:52:19.272Z,20.33
2022-12-01T02:53:08.437Z,20.98
2022-12-01T02:53:56.705Z,22.02
2022-12-01T02:54:44.862Z,21.15
2022-12-01T02:55:31.786Z,22.55
2022-12-01T02:56:21.526Z,23.12
2022-12-01T02:57:12.085Z,21.33
2022-12-01T02:58:45.707Z,21.37
2022-12-01T02:59:32.630Z,22.98
2022-12-01T03:00:19.740Z,23.48
2022-12-01T03:01:06.568Z,23.23
2022-12-01T03:02:13.622Z,21.55
2022-12-01T03:03:09.689Z,23.05
2022-12-01T03:04:01.249Z,22.40
2022-12-01T03:04:59.029Z,22.08
2022-12-01T03:06:02.249Z,23.27
2022-12-01T03:07:04.238Z,21.87
2022-12-01T03:08:13.918Z,23.25
2022-12-01T03:09:11.015Z,22.02
2022-12-01T03:10:12.823Z,22.48
2022-12-01T03:11:00.375Z,23.45
2022-12-01T03:11:59.826Z,21.67
2022-12-01T03:13:09.028Z,22.90
2022-12-01T03:14:10.774Z,22.33
2022-12-01T03:15:16.173Z,22.75
2022-12-01T03:16:20.622Z,21.05
2022-12-01T03:17:16.301Z,20.45
2022-12-01T03:18:34.391Z,21.90
2022-12-01T03:19:38.177Z,23.00
2022-12-01T03:20:42.772Z,21.42
2022-12-01T03:21:42.814Z,22.10
2022-12-01T03:22:37.739Z,23.00
2022-12-01T03:23:27.994Z,23.02
2022-12-01T03:24:16.422Z,23.15
2022-12-01T03:25:04.921Z,22.87
2022-12-01T03:25:52.863Z,24.33
2022-12-01T03:26:41.961Z,22.83
2022-12-01T03:27:32.081Z,22.42
2022-12-01T03:28:22.996Z,22.45
2022-12-01T03:29:14.195Z,23.50
2022-12-01T03:30:02.859Z,25.42
2022-12-01T03:30:52.947Z,23.92
2022-12-01T03:31:44.157Z,23.20
2022-12-01T03:32:32.188Z,21.95
2022-12-01T03:33:27.382Z,23.40
2022-12-01T03:34:29.694Z,23.55
2022-12-01T03:35:23.841Z,23.55
2022-12-01T03:36:15.597Z,23.00
2022-12-01T03:37:07.302Z,21.80
2022-12-01T03:38:00.755Z,23.55
2022-12-01T03:38:52.866Z,23.02
2022-12-01T03:39:40.348Z,23.52
2022-12-01T03:40:28.838Z,23.23
2022-12-01T03:41:29.808Z,24.63
2022-12-01T03:42:41.316Z,23.30
2022-12-01T03:43:36.623Z,23.58
2022-12-01T03:44:29.944Z,23.73
2022-12-01T03:45:24.062Z,24.70
2022-12-01T03:46:17.916Z,26.23
2022-12-01T03:47:07.797Z,23.58
2022-12-01T03:47:55.008Z,24.10
2022-12-01T03:48:42.262Z,23.65
2022-12-01T03:49:29.522Z,24.90
2022-12-01T03:50:18.806Z,25.20
2022-12-01T03:51:20.777Z,26.27
2022-12-01T03:52:36.193Z,26.87
2022-12-01T03:53:27.732Z,26.98
2022-12-01T03:54:17.575Z,25.52
2022-12-01T03:55:13.984Z,25.45
2022-12-01T03:56:04.230Z,25.73
2022-12-01T03:56:55.759Z,27.05
2022-12-01T03:58:04.024Z,24.50
2022-12-01T03:58:54.381Z,26.08
2022-12-01T03:59:42.190Z,25.40
2022-12-01T04:00:29.725Z,25.27
2022-12-01T04:01:16.743Z,25.15
2022-12-01T04:02:03.724Z,26.27
2022-12-01T04:02:58.374Z,24.37
2022-12-01T04:03:46.631Z,27.67
2022-12-01T04:04:33.484Z,26.25
2022-12-01T04:05:25.172Z,26.87
2022-12-01T04:06:12.365Z,26.08
2022-12-01T04:06:59.159Z,25.85
2022-12-01T04:07:46.144Z,24.75
2022-12-01T04:08:34.058Z,24.73
2022-12-01T04:09:20.910Z,25.90
2022-12-01T04:10:08.710Z,24.63
2022-12-01T04:10:55.524Z,25.15
2022-12-01T04:12:01.971Z,24.58
2022-12-01T04:12:49.024Z,23.58
2022-12-01T04:13:37.113Z,23.02
2022-12-01T04:14:24.067Z,23.30
2022-12-01T04:15:12.971Z,23.38
2022-12-01T04:16:00.179Z,23.55
2022-12-01T04:16:47.152Z,23.92
2022-12-01T04:17:34.513Z,25.62
2022-12-01T04:18:21.972Z,24.83
2022-12-01T04:19:08.932Z,24.58
2022-12-01T04:19:56.063Z,25.55
2022-12-01T04:20:43.800Z,25.45
2022-12-01T04:21:30.863Z,25.60
2022-12-01T04:22:17.960Z,24.52
2022-12-01T04:23:04.818Z,24.75
2022-12-01T04:24:00.509Z,25.62
2022-12-01T04:24:47.423Z,24.33
2022-12-01T04:25:34.308Z,24.92
2022-12-01T04:26:21.154Z,24.95
2022-12-01T04:27:08.051Z,23.70
2022-12-01T04:27:54.965Z,23.95
2022-12-01T04:28:41.767Z,24.58
2022-12-01T04:29:28.603Z,24.87
2022-12-01T04:30:15.602Z,24.60
2022-12-01T04:31:02.494Z,25.30
2022-12-01T04:31:49.495Z,24.65
2022-12-01T04:32:42.155Z,23.55
2022-12-01T04:33:29.765Z,25.20
2022-12-01T04:34:16.762Z,25.37
2022-12-01T04:35:03.637Z,24.73
2022-12-01T04:36:00.563Z,24.58
2022-12-01T04:36:47.510Z,23.62
2022-12-01T04:37:34.444Z,24.23
2022-12-01T04:38:24.994Z,23.85
2022-12-01T04:39:15.932Z,23.98
2022-12-01T04:40:02.767Z,23.80
2022-12-01T04:40:49.742Z,24.63
2022-12-01T04:41:36.699Z,24.65
2022-12-01T04:42:23.764Z,22.75
2022-12-01T04:43:10.568Z,25.45
2022-12-01T04:43:57.597Z,24.37
2022-12-01T04:44:44.642Z,24.08
2022-12-01T04:45:31.512Z,23.87
2022-12-01T04:46:18.440Z,23.55
2022-12-01T04:47:06.050Z,22.13
2022-12-01T04:47:53.481Z,22.92
2022-12-01T04:48:40.530Z,23.98
2022-12-01T04:49:27.504Z,23.92
2022-12-01T04:50:14.495Z,24.20
2022-12-01T04:51:01.330Z,23.70
2022-12-01T04:51:48.788Z,23.60
2022-12-01T04:52:37.534Z,22.62
2022-12-01T04:53:24.382Z,22.02
2022-12-01T04:54:11.443Z,22.83
2022-12-01T04:54:58.263Z,23.48
2022-12-01T04:55:45.203Z,24.12
2022-12-01T04:56:33.706Z,21.62
2022-12-01T04:57:20.521Z,21.33
2022-12-01T04:58:07.581Z,20.80
2022-12-01T04:58:54.399Z,23.25
2022-12-01T04:59:41.260Z,22.85
2022-12-01T05:00:28.219Z,22.58
2022-12-01T05:01:17.609Z,22.42
2022-12-01T05:02:04.586Z,21.40
2022-12-01T05:02:51.433Z,21.33
2022-12-01T05:03:39.487Z,20.35
2022-12-01T05:04:26.365Z,21.48
2022-12-01T05:05:14.322Z,21.40
2022-12-01T05:06:15.503Z,20.90
2022-12-01T05:07:02.269Z,20.33
2022-12-01T05:07:49.209Z,20.55
2022-12-01T05:08:36.229Z,21.05
2022-12-01T05:09:23.104Z,21.95
2022-12-01T05:10:10.155Z,21.45
2022-12-01T05:10:57.217Z,20.80
2022-12-01T05:11:44.121Z,21.65
2022-12-01T05:12:30.944Z,20.30
2022-12-01T05:13:17.854Z,22.02
2022-12-01T05:14:04.729Z,21.05
2022-12-01T05:14:51.593Z,19.27
2022-12-01T05:15:38.598Z,19.60
2022-12-01T05:16:28.432Z,19.67
2022-12-01T05:17:15.312Z,19.83
2022-12-01T05:18:02.258Z,20.02
2022-12-01T05:18:51.042Z,19.23
2022-12-01T05:19:56.962Z,19.12
2022-12-01T05:20:59.089Z,20.40
2022-12-01T05:21:47.665Z,19.25
2022-12-01T05:23:03.927Z,19.15
2022-12-01T05:23:41.363Z,19.12
2022-12-01T05:24:28.288Z,18.48
2022-12-01T05:25:15.270Z,18.87
2022-12-01T05:26:04.166Z,18.30
2022-12-01T05:26:51.034Z,17.87
2022-12-01T05:27:37.857Z,18.45
2022-12-01T05:28:27.010Z,18.83
2022-12-01T05:29:14.138Z,18.25
2022-12-01T05:30:00.951Z,18.05
2022-12-01T05:30:48.583Z,19.15
2022-12-01T05:31:36.141Z,18.80
2022-12-01T05:32:23.015Z,17.92
2022-12-01T05:33:09.990Z,18.85
2022-12-01T05:33:57.060Z,18.58
2022-12-01T05:34:43.921Z,18.08
2022-12-01T05:35:30.859Z,17.77
2022-12-01T05:36:17.716Z,18.58
2022-12-01T05:37:04.641Z,18.95
2022-12-01T05:37:51.492Z,18.70
2022-12-01T05:38:38.340Z,18.92
2022-12-01T05:39:25.351Z,18.05
2022-12-01T05:40:12.481Z,16.55
2022-12-01T05:40:59.319Z,15.68
2022-12-01T05:41:46.230Z,16.58
2022-12-01T05:42:33.095Z,17.58
2022-12-01T05:43:25.408Z,16.33
2022-12-01T05:44:15.681Z,17.23
2022-12-01T05:45:02.571Z,16.02
2022-12-01T05:45:52.173Z,16.62
2022-12-01T05:46:39.011Z,13.05
2022-12-01T05:47:25.832Z,16.15
2022-12-01T05:48:12.664Z,16.55
2022-12-01T05:48:59.553Z,16.02
2022-12-01T05:49:46.590Z,17.00
2022-12-01T05:50:33.790Z,16.58
2022-12-01T05:51:20.691Z,15.05
2022-12-01T05:52:07.503Z,15.93
2022-12-01T05:52:54.397Z,16.77
2022-12-01T05:53:41.283Z,17.23
2022-12-01T05:54:30.677Z,16.60
2022-12-01T05:55:17.681Z,15.60
2022-12-01T05:56:05.440Z,16.05
2022-12-01T05:56:52.353Z,16.80
2022-12-01T05:57:39.430Z,16.20
2022-12-01T05:58:26.329Z,17.00
2022-12-01T05:59:13.246Z,16.50
2022-12-01T06:00:00.533Z,16.33
2022-12-01T06:00:47.487Z,16.48
2022-12-01T06:01:34.443Z,15.63
2022-12-01T06:02:21.495Z,16.08
2022-12-01T06:03:08.428Z,16.65
2022-12-01T06:03:55.405Z,16.50
2022-12-01T06:04:42.307Z,15.43
2022-12-01T06:05:29.571Z,15.63
2022-12-01T06:06:16.509Z,15.63
2022-12-01T06:07:03.535Z,14.65
2022-12-01T06:07:50.534Z,15.23
2022-12-01T06:08:37.636Z,15.73
2022-12-01T06:09:24.460Z,14.87
2022-12-01T06:10:12.216Z,15.25
2022-12-01T06:10:59.264Z,16.17
2022-12-01T06:11:49.017Z,15.32
2022-12-01T06:12:39.269Z,13.75
2022-12-01T06:13:26.375Z,14.50
2022-12-01T06:14:13.270Z,15.25
2022-12-01T06:15:00.475Z,14.85
2022-12-01T06:15:56.455Z,16.48
2022-12-01T06:16:43.334Z,15.57
2022-12-01T06:17:30.286Z,15.68
2022-12-01T06:18:17.208Z,15.75
2022-12-01T06:19:04.096Z,17.27
2022-12-01T06:19:51.203Z,16.95
2022-12-01T06:20:38.448Z,16.20
2022-12-01T06:21:25.362Z,16.08
2022-12-01T06:22:12.422Z,15.77
2022-12-01T06:22:59.810Z,16.15
2022-12-01T06:23:46.691Z,16.35
2022-12-01T06:24:33.563Z,16.08
2022-12-01T06:25:20.620Z,16.50
2022-12-01T06:26:07.693Z,15.50
2022-12-01T06:26:54.633Z,15.55
2022-12-01T06:27:41.570Z,14.80
2022-12-01T06:28:28.529Z,14.77
2022-12-01T06:29:15.361Z,15.63
2022-12-01T06:30:02.606Z,15.50
2022-12-01T06:30:49.496Z,15.60
2022-12-01T06:31:36.621Z,15.63
2022-12-01T06:32:23.700Z,15.90
2022-12-01T06:33:10.569Z,15.25
2022-12-01T06:33:57.370Z,14.85
2022-12-01T06:34:44.300Z,16.02
2022-12-01T06:35:31.158Z,15.30
2022-12-01T06:36:18.169Z,15.35
2022-12-01T06:37:05.066Z,15.35
2022-12-01T06:37:54.495Z,15.32
2022-12-01T06:38:41.368Z,15.00
2022-12-01T06:39:28.253Z,15.02
2022-12-01T06:40:15.192Z,15.32
2022-12-01T06:41:02.229Z,15.45
2022-12-01T06:41:49.505Z,16.60
2022-12-01T06:42:36.333Z,17.12
2022-12-01T06:43:23.202Z,17.27
2022-12-01T06:44:10.884Z,16.12
2022-12-01T06:44:57.874Z,15.80
2022-12-01T06:45:44.859Z,17.10
2022-12-01T06:46:31.951Z,15.55
2022-12-01T06:47:18.900Z,16.58
2022-12-01T06:48:05.861Z,15.40
2022-12-01T06:48:53.321Z,15.30
2022-12-01T06:49:40.335Z,15.93
2022-12-01T06:50:27.279Z,14.73
2022-12-01T06:51:14.202Z,15.43
2022-12-01T06:52:01.291Z,14.80
2022-12-01T06:52:48.215Z,15.15
2022-12-01T06:53:35.154Z,14.82
2022-12-01T06:54:22.155Z,15.45
2022-12-01T06:55:09.436Z,15.00
2022-12-01T06:56:03.595Z,14.27
2022-12-01T06:56:50.746Z,15.50
2022-12-01T06:57:37.866Z,15.32
2022-12-01T06:58:25.138Z,15.90
2022-12-01T06:59:12.568Z,15.73
2022-12-01T06:59:59.938Z,14.15
2022-12-01T07:00:51.858Z,14.82
2022-12-01T07:01:39.395Z,14.02
2022-12-01T07:02:26.385Z,14.77
2022-12-01T07:03:13.564Z,15.20
2022-12-01T07:04:01.055Z,14.70
2022-12-01T07:04:47.928Z,15.43
2022-12-01T07:05:34.808Z,14.82
2022-12-01T07:06:21.855Z,14.23
2022-12-01T07:07:08.828Z,14.45
2022-12-01T07:07:59.432Z,15.23
2022-12-01T07:08:47.002Z,15.00
2022-12-01T07:09:34.422Z,15.73
2022-12-01T07:10:21.740Z,16.17
2022-12-01T07:11:12.696Z,16.48
2022-12-01T07:11:59.645Z,15.52
2022-12-01T07:12:46.609Z,15.65
2022-12-01T07:13:34.550Z,14.85
2022-12-01T07:14:25.409Z,14.87
2022-12-01T07:15:12.391Z,14.65
2022-12-01T07:15:59.386Z,15.73
2022-12-01T07:16:46.439Z,16.10
2022-12-01T07:17:34.063Z,15.82
2022-12-01T07:18:21.050Z,17.45
2022-12-01T07:19:08.080Z,16.98
2022-12-01T07:19:55.004Z,17.77
2022-12-01T07:20:41.960Z,16.02
2022-12-01T07:21:28.864Z,18.08
2022-12-01T07:22:16.188Z,17.55
2022-12-01T07:23:03.074Z,16.42
2022-12-01T07:23:49.900Z,17.62
2022-12-01T07:24:36.824Z,16.75
2022-12-01T07:25:23.723Z,16.85
2022-12-01T07:26:16.125Z,17.95
2022-12-01T07:27:02.934Z,18.23
2022-12-01T07:27:49.867Z,18.02
2022-12-01T07:28:36.787Z,17.52
2022-12-01T07:29:23.689Z,17.20
2022-12-01T07:30:10.993Z,17.12
2022-12-01T07:31:07.887Z,17.70
2022-12-01T07:31:55.179Z,15.98
2022-12-01T07:32:42.100Z,16.35
2022-12-01T07:33:28.937Z,16.90
2022-12-01T07:34:15.914Z,17.00
2022-12-01T07:35:02.862Z,16.70
2022-12-01T07:35:49.750Z,16.95
2022-12-01T07:36:36.653Z,17.23
2022-12-01T07:37:23.493Z,15.55
2022-12-01T07:38:10.404Z,17.30
2022-12-01T07:38:57.399Z,16.75
2022-12-01T07:39:44.331Z,17.12
2022-12-01T07:40:31.215Z,16.45
2022-12-01T07:41:19.477Z,16.12
2022-12-01T07:42:06.432Z,16.58
2022-12-01T07:42:53.351Z,17.60
2022-12-01T07:43:40.753Z,14.87
2022-12-01T07:44:27.741Z,16.52
2022-12-01T07:45:14.787Z,16.30
2022-12-01T07:46:09.121Z,15.82
2022-12-01T07:46:56.107Z,15.85
2022-12-01T07:47:44.665Z,15.05
2022-12-01T07:48:31.552Z,16.27
2022-12-01T07:49:18.629Z,14.95
2022-12-01T07:50:06.170Z,16.25
2022-12-01T07:50:56.016Z,16.87
2022-12-01T07:51:43.083Z,17.23
2022-12-01T07:52:29.991Z,16.92
2022-12-01T07:53:16.849Z,17.02
2022-12-01T07:54:05.760Z,17.35
2022-12-01T07:54:52.990Z,15.90
2022-12-01T07:55:39.830Z,16.12
2022-12-01T07:56:26.693Z,16.23
2022-12-01T07:57:14.979Z,15.80
2022-12-01T07:58:01.939Z,14.98
2022-12-01T07:58:49.125Z,15.13
2022-12-01T07:59:36.002Z,15.68
2022-12-01T08:00:22.998Z,16.73
2022-12-01T08:01:12.734Z,15.35
2022-12-01T08:01:59.763Z,15.93
2022-12-01T08:02:49.343Z,14.70
2022-12-01T08:03:37.108Z,15.40
2022-12-01T08:04:24.095Z,15.18
2022-12-01T08:05:11.021Z,15.43
2022-12-01T08:06:01.852Z,14.25
2022-12-01T08:06:48.810Z,14.45
2022-12-01T08:07:36.665Z,14.70
2022-12-01T08:08:23.558Z,13.10
2022-12-01T08:09:10.434Z,15.25
2022-12-01T08:09:57.410Z,14.45
2022-12-01T08:10:44.275Z,14.07
2022-12-01T08:11:31.203Z,14.80
2022-12-01T08:12:18.167Z,14.02
2022-12-01T08:13:05.124Z,13.35
2022-12-01T08:13:53.316Z,13.60
2022-12-01T08:14:40.142Z,14.20
2022-12-01T08:15:26.996Z,13.43
2022-12-01T08:16:16.164Z,12.85
2022-12-01T08:17:03.074Z,14.52
2022-12-01T08:17:49.987Z,14.87
2022-12-01T08:18:38.635Z,13.07
2022-12-01T08:19:26.073Z,13.45
2022-12-01T08:20:13.073Z,12.93
2022-12-01T08:20:59.917Z,12.93
2022-12-01T08:21:46.813Z,13.62
2022-12-01T08:22:33.794Z,13.07
2022-12-01T08:23:20.694Z,13.18
2022-12-01T08:24:07.846Z,13.73
2022-12-01T08:24:54.740Z,13.25
2022-12-01T08:25:41.633Z,12.82
2022-12-01T08:26:28.490Z,13.52
2022-12-01T08:27:15.533Z,13.40
2022-12-01T08:28:02.529Z,13.27
2022-12-01T08:28:49.844Z,12.93
2022-12-01T08:29:36.719Z,13.07
2022-12-01T08:30:23.842Z,13.18
2022-12-01T08:31:20.952Z,13.55
2022-12-01T08:32:08.380Z,13.75
2022-12-01T08:32:56.916Z,13.23
2022-12-01T08:33:43.876Z,12.93
2022-12-01T08:34:30.755Z,12.77
2022-12-01T08:35:17.709Z,12.85
2022-12-01T08:36:05.792Z,13.13
2022-12-01T08:36:52.705Z,12.82
2022-12-01T08:37:39.589Z,11.82
2022-12-01T08:38:26.487Z,13.02
2022-12-01T08:39:13.490Z,12.23
2022-12-01T08:40:00.678Z,13.82
2022-12-01T08:40:47.790Z,12.85
2022-12-01T08:41:34.942Z,12.50
2022-12-01T08:42:21.975Z,13.18
2022-12-01T08:43:12.362Z,13.35
2022-12-01T08:44:05.644Z,12.05
2022-12-01T08:44:55.464Z,12.98
2022-12-01T08:45:42.584Z,12.32
2022-12-01T08:46:32.913Z,12.90
2022-12-01T08:47:19.860Z,11.65
2022-12-01T08:48:06.685Z,12.73
2022-12-01T08:48:55.205Z,12.98
2022-12-01T08:49:42.076Z,12.63
2022-12-01T08:50:29.261Z,12.70
2022-12-01T08:51:18.125Z,13.38
2022-12-01T08:52:04.946Z,12.95
2022-12-01T08:52:51.866Z,13.80
2022-12-01T08:53:45.440Z,12.65
2022-12-01T08:54:32.782Z,12.88
2022-12-01T08:55:20.738Z,13.05
2022-12-01T08:56:29.304Z,13.55
2022-12-01T08:57:16.043Z,13.20
2022-12-01T08:58:02.846Z,12.70
2022-12-01T08:58:51.196Z,12.98
2022-12-01T08:59:38.019Z,14.23
2022-12-01T09:00:24.930Z,13.10
2022-12-01T09:01:15.749Z,13.98
2022-12-01T09:02:06.915Z,14.65
2022-12-01T09:02:54.222Z,15.50
2022-12-01T09:03:41.778Z,15.20
2022-12-01T09:04:28.843Z,14.57
2022-12-01T09:05:15.824Z,14.07
2022-12-01T09:06:20.504Z,14.80
2022-12-01T09:07:10.849Z,14.57
2022-12-01T09:08:18.074Z,14.90
2022-12-01T09:09:05.398Z,14.05
2022-12-01T09:09:52.300Z,14.80
2022-12-01T09:10:39.258Z,14.00
2022-12-01T09:11:26.603Z,15.80
2022-12-01T09:12:13.572Z,15.18
2022-12-01T09:13:00.747Z,15.35
2022-12-01T09:13:53.020Z,15.93
2022-12-01T09:14:46.249Z,14.73
2022-12-01T09:15:33.210Z,14.60
2022-12-01T09:16:20.236Z,14.38
2022-12-01T09:17:07.948Z,14.45
2022-12-01T09:17:55.246Z,14.65
2022-12-01T09:18:42.973Z,14.05
2022-12-01T09:19:30.242Z,14.35
2022-12-01T09:20:17.113Z,13.07
2022-12-01T09:21:30.964Z,14.35
2022-12-01T09:22:18.096Z,13.82
2022-12-01T09:23:05.085Z,14.15
2022-12-01T09:23:52.272Z,13.57
2022-12-01T09:24:39.655Z,14.43
2022-12-01T09:25:26.603Z,13.73
2022-12-01T09:26:18.379Z,12.85
2022-12-01T09:27:05.551Z,14.55
2022-12-01T09:27:52.527Z,13.32
2022-12-01T09:28:39.528Z,13.35
2022-12-01T09:29:26.677Z,13.25
2022-12-01T09:30:13.848Z,14.60
2022-12-01T09:31:08.905Z,13.93
2022-12-01T09:31:59.995Z,13.15
2022-12-01T09:32:47.083Z,13.80
2022-12-01T09:33:34.320Z,14.48
2022-12-01T09:34:21.393Z,14.50
2022-12-01T09:35:08.530Z,14.93
2022-12-01T09:35:59.718Z,18.33
2022-12-01T09:36:47.788Z,17.92
2022-12-01T09:37:34.636Z,16.98
2022-12-01T09:38:21.469Z,18.15
2022-12-01T09:39:10.814Z,18.50
2022-12-01T09:39:57.652Z,18.73
2022-12-01T09:40:44.662Z,18.37
2022-12-01T09:41:34.743Z,18.70
2022-12-01T09:42:32.222Z,17.87
2022-12-01T09:43:23.514Z,18.45
2022-12-01T09:44:23.116Z,17.98
2022-12-01T09:45:22.785Z,17.60
2022-12-01T09:46:14.894Z,17.02
2022-12-01T09:47:05.024Z,16.87
2022-12-01T09:47:54.386Z,17.80
2022-12-01T09:48:46.437Z,17.98
2022-12-01T09:49:55.756Z,16.17
2022-12-01T09:50:43.927Z,16.73
2022-12-01T09:51:34.949Z,17.60
2022-12-01T09:52:23.925Z,16.73
2022-12-01T09:53:15.960Z,15.90
2022-12-01T09:54:03.484Z,17.33
2022-12-01T09:54:50.976Z,16.67
2022-12-01T09:55:39.864Z,17.10
2022-12-01T09:56:30.612Z,15.20
2022-12-01T09:57:33.094Z,15.27
2022-12-01T09:58:27.053Z,15.85
2022-12-01T09:59:19.370Z,15.70
2022-12-01T10:00:25.156Z,15.35
2022-12-01T10:01:16.692Z,16.00
2022-12-01T10:02:13.860Z,14.43
2022-12-01T10:03:09.992Z,15.85
2022-12-01T10:04:00.155Z,14.98
2022-12-01T10:04:48.680Z,14.07
2022-12-01T10:07:16.222Z,12.52
2022-12-01T10:08:06.305Z,14.00
2022-12-01T10:09:17.779Z,14.55
2022-12-01T10:10:11.441Z,12.88
2022-12-01T10:11:04.826Z,13.15
2022-12-01T10:11:55.446Z,13.35
2022-12-01T10:13:29.723Z,13.13
2022-12-01T10:14:20.669Z,13.10
2022-12-01T10:15:18.715Z,12.73
2022-12-01T10:16:14.049Z,12.48
2022-12-01T10:17:07.059Z,12.27
2022-12-01T10:18:18.355Z,12.70
2022-12-01T10:19:29.158Z,12.95
2022-12-01T10:20:27.242Z,13.05
2022-12-01T10:21:32.805Z,12.18
2022-12-01T10:22:56.859Z,13.05
2022-12-01T10:23:57.261Z,12.30
2022-12-01T10:25:07.783Z,12.57
2022-12-01T10:25:59.535Z,12.77
2022-12-01T10:27:02.641Z,12.35
2022-12-01T10:28:10.727Z,13.45
2022-12-01T10:29:03.489Z,11.90
2022-12-01T10:30:18.703Z,12.77
2022-12-01T10:31:44.049Z,12.35
2022-12-01T10:32:58.463Z,11.45
2022-12-01T10:34:13.386Z,11.68
2022-12-01T10:35:00.225Z,12.05
2022-12-01T10:35:47.323Z,12.18
2022-12-01T10:36:34.980Z,13.10
2022-12-01T10:37:24.468Z,13.05
2022-12-01T10:38:23.151Z,13.13
2022-12-01T10:39:18.974Z,13.35
2022-12-01T10:40:06.599Z,15.07
2022-12-01T10:40:54.818Z,15.65
2022-12-01T10:41:41.858Z,14.50
2022-12-01T10:42:34.461Z,14.80
2022-12-01T10:43:31.832Z,18.70
2022-12-01T10:44:19.237Z,15.70
2022-12-01T10:45:10.856Z,14.10
2022-12-01T10:45:59.031Z,13.85
2022-12-01T10:46:55.727Z,14.23
2022-12-01T10:48:20.697Z,13.90
2022-12-01T10:49:10.853Z,18.92
2022-12-01T10:49:58.285Z,17.17
2022-12-01T10:50:47.716Z,15.95
2022-12-01T10:51:53.587Z,14.43
2022-12-01T10:52:42.071Z,14.15
2022-12-01T10:53:37.519Z,13.80
2022-12-01T10:54:32.989Z,13.70
2022-12-01T10:55:22.738Z,13.73
2022-12-01T10:56:16.641Z,13.83
2022-12-01T10:57:04.447Z,13.25
2022-12-01T10:57:53.034Z,13.20
2022-12-01T10:58:51.314Z,14.00
2022-12-01T10:59:58.346Z,13.02
2022-12-01T11:01:05.655Z,12.82